createdAt,value
2019-01-21T00:00:42.782Z,21.57
2019-01-21T00:03:14.685Z,20.27
2019-01-21T00:05:43.685Z,18.97
2019-01-21T00:08:13.059Z,19.85
2019-01-21T00:10:42.442Z,18.80
2019-01-21T00:13:11.816Z,15.55
2019-01-21T00:15:41.239Z,20.80
2019-01-21T00:18:10.692Z,15.58
2019-01-21T00:20:40.061Z,16.23
2019-01-21T00:23:09.482Z,25.02
2019-01-21T00:25:38.856Z,25.77
2019-01-21T00:28:08.415Z,17.65
2019-01-21T00:30:37.798Z,16.52
2019-01-21T00:33:07.222Z,19.90
2019-01-21T00:35:36.580Z,13.30
2019-01-21T00:38:06.210Z,14.68
2019-01-21T00:40:35.572Z,15.87
2019-01-21T00:43:05.071Z,17.27
2019-01-21T00:45:34.463Z,17.30
2019-01-21T00:48:03.814Z,15.75
2019-01-21T00:50:33.176Z,15.00
2019-01-21T00:53:02.546Z,13.80
2019-01-21T00:55:31.925Z,14.60
2019-01-21T00:58:01.288Z,13.20
2019-01-21T01:00:30.887Z,12.37
2019-01-21T01:03:00.416Z,14.98
2019-01-21T01:05:30.091Z,12.73
2019-01-21T01:07:59.848Z,14.40
2019-01-21T01:10:29.223Z,13.75
2019-01-21T01:12:58.605Z,18.32
2019-01-21T01:15:28.003Z,19.03
2019-01-21T01:17:57.362Z,23.15
2019-01-21T01:20:26.792Z,20.23
2019-01-21T01:22:56.197Z,15.38
2019-01-21T01:25:25.573Z,15.83
2019-01-21T01:27:54.946Z,17.52
2019-01-21T01:30:24.601Z,14.13
2019-01-21T01:32:53.964Z,25.63
2019-01-21T01:35:23.358Z,17.97
2019-01-21T01:37:52.740Z,15.83
2019-01-21T01:40:22.387Z,21.20
2019-01-21T01:42:51.747Z,15.43
2019-01-21T01:45:24.890Z,15.58
2019-01-21T01:48:00.441Z,18.67
2019-01-21T01:50:29.895Z,14.53
2019-01-21T01:52:59.630Z,14.20
2019-01-21T02:14:38.233Z,16.55
2019-01-21T02:17:07.600Z,17.70
2019-01-21T02:19:41.658Z,16.52
2019-01-21T02:22:13.284Z,15.40
2019-01-21T02:24:45.297Z,16.60
2019-01-21T02:27:17.957Z,15.08
2019-01-21T02:30:01.233Z,15.23
2019-01-21T02:32:56.276Z,15.08
2019-01-21T02:35:33.679Z,14.27
2019-01-21T02:38:30.355Z,15.32
2019-01-21T02:41:04.341Z,14.13
2019-01-21T02:43:47.410Z,14.60
2019-01-21T02:46:47.007Z,14.77
2019-01-21T02:49:57.760Z,13.60
2019-01-21T02:52:38.110Z,13.47
2019-01-21T02:55:31.862Z,13.25
2019-01-21T02:58:22.988Z,12.90
2019-01-21T03:01:16.336Z,14.83
2019-01-21T03:04:08.400Z,14.80
2019-01-21T03:07:09.580Z,13.07
2019-01-21T03:10:00.904Z,14.95
2019-01-21T03:12:46.471Z,14.67
2019-01-21T03:15:47.907Z,14.23
2019-01-21T03:18:36.802Z,14.53
2019-01-21T03:21:18.882Z,14.33
2019-01-21T03:24:13.954Z,15.03
2019-01-21T03:27:05.686Z,13.55
2019-01-21T03:29:58.953Z,14.33
2019-01-21T03:33:01.976Z,12.40
2019-01-21T03:36:00.024Z,14.50
2019-01-21T03:38:45.609Z,14.73
2019-01-21T03:41:25.982Z,15.13
2019-01-21T03:44:16.023Z,11.95
2019-01-21T03:47:07.747Z,14.65
2019-01-21T03:49:44.513Z,13.60
2019-01-21T03:52:42.568Z,13.13
2019-01-21T03:55:15.636Z,14.80
2019-01-21T03:58:09.568Z,14.35
2019-01-21T04:00:49.494Z,14.20
2019-01-21T04:03:34.919Z,14.07
2019-01-21T04:06:24.189Z,14.17
2019-01-21T04:09:32.352Z,13.93
2019-01-21T04:12:30.278Z,16.13
2019-01-21T04:15:47.181Z,14.63
2019-01-21T04:18:24.562Z,15.13
2019-01-21T04:21:17.863Z,15.13
2019-01-21T04:24:14.609Z,21.48
2019-01-21T04:27:09.128Z,24.95
2019-01-21T04:29:57.728Z,24.73
2019-01-21T04:32:46.610Z,29.25
2019-01-21T04:35:44.481Z,26.82
2019-01-21T04:38:21.005Z,26.85
2019-01-21T04:41:06.715Z,23.98
2019-01-21T04:43:43.399Z,18.80
2019-01-21T04:46:29.407Z,16.20
2019-01-21T04:49:35.841Z,15.13
2019-01-21T04:52:18.287Z,16.10
2019-01-21T04:55:25.872Z,15.48
2019-01-21T04:58:33.225Z,16.23
2019-01-21T05:01:16.269Z,15.60
2019-01-21T05:03:58.868Z,15.37
2019-01-21T05:07:09.233Z,17.57
2019-01-21T05:09:45.958Z,16.52
2019-01-21T05:12:34.394Z,16.62
2019-01-21T05:15:29.297Z,15.07
2019-01-21T05:18:27.095Z,14.78
2019-01-21T05:21:21.591Z,15.23
2019-01-21T05:24:24.499Z,14.63
2019-01-21T05:27:01.244Z,13.90
2019-01-21T05:30:05.317Z,15.13
2019-01-21T05:32:58.542Z,15.63
2019-01-21T05:36:13.697Z,15.53
2019-01-21T05:39:07.694Z,16.40
2019-01-21T05:41:59.907Z,15.93
2019-01-21T05:44:45.860Z,15.47
2019-01-21T05:47:34.739Z,15.97
2019-01-21T05:50:20.924Z,14.38
2019-01-21T05:53:04.308Z,15.40
2019-01-21T05:56:05.172Z,15.83
2019-01-21T05:58:51.483Z,14.40
2019-01-21T06:01:48.900Z,15.10
2019-01-21T06:04:46.895Z,15.67
2019-01-21T06:07:39.045Z,14.15
2019-01-21T06:10:21.997Z,14.97
2019-01-21T06:12:55.966Z,14.87
2019-01-21T06:15:38.134Z,15.08
2019-01-21T06:18:21.455Z,15.30
2019-01-21T06:21:07.449Z,15.00
2019-01-21T06:23:41.415Z,13.88
2019-01-21T06:26:48.577Z,14.43
2019-01-21T06:29:37.332Z,14.50
2019-01-21T06:32:40.267Z,15.88
2019-01-21T06:35:35.115Z,14.93
2019-01-21T06:38:14.289Z,16.32
2019-01-21T06:41:02.990Z,15.50
2019-01-21T06:43:57.648Z,15.05
2019-01-21T06:46:40.409Z,14.63
2019-01-21T06:49:23.030Z,14.68
2019-01-21T06:52:13.850Z,14.30
2019-01-21T06:55:32.442Z,15.20
2019-01-21T06:58:24.520Z,15.50
2019-01-21T07:01:22.163Z,18.93
2019-01-21T07:04:01.758Z,25.77
2019-01-21T07:07:00.142Z,20.17
2019-01-21T07:09:39.741Z,20.57
2019-01-21T07:12:34.525Z,17.80
2019-01-21T07:15:37.440Z,16.03
2019-01-21T07:18:26.165Z,16.55
2019-01-21T07:21:23.982Z,17.73
2019-01-21T07:24:03.500Z,18.10
2019-01-21T07:26:54.051Z,20.75
2019-01-21T07:29:43.239Z,22.93
2019-01-21T07:32:20.040Z,20.68
2019-01-21T07:34:54.049Z,15.00
2019-01-21T07:37:53.791Z,16.17
2019-01-21T07:40:58.637Z,23.35
2019-01-21T07:43:37.904Z,17.35
2019-01-21T07:46:33.123Z,16.87
2019-01-21T07:49:29.900Z,17.55
2019-01-21T07:52:28.173Z,15.57
2019-01-21T07:55:18.584Z,16.83
2019-01-21T07:58:21.495Z,15.85
2019-01-21T08:01:01.295Z,17.00
2019-01-21T08:03:44.019Z,17.20
2019-01-21T08:07:03.405Z,16.20
2019-01-21T08:09:52.552Z,17.07
2019-01-21T08:12:38.545Z,17.07
2019-01-21T08:15:33.954Z,17.37
2019-01-21T08:18:19.835Z,15.65
2019-01-21T08:21:39.663Z,15.40
2019-01-21T08:24:33.321Z,16.25
2019-01-21T08:27:39.376Z,16.12
2019-01-21T08:30:24.645Z,17.67
2019-01-21T08:33:44.425Z,17.77
2019-01-21T08:36:30.123Z,18.00
2019-01-21T08:39:40.488Z,28.77
2019-01-21T08:42:25.674Z,19.27
2019-01-21T08:45:19.215Z,24.47
2019-01-21T08:48:08.124Z,19.90
2019-01-21T08:51:00.266Z,18.03
2019-01-21T08:53:34.251Z,19.30
2019-01-21T08:56:14.115Z,21.10
2019-01-21T08:58:50.812Z,18.27
2019-01-21T09:02:04.197Z,17.00
2019-01-21T09:05:00.313Z,17.02
2019-01-21T09:08:02.452Z,18.70
2019-01-21T09:10:42.487Z,18.10
2019-01-21T09:13:34.638Z,21.07
2019-01-21T09:16:23.712Z,18.43
2019-01-21T09:19:12.700Z,16.48
2019-01-21T09:21:53.017Z,17.40
2019-01-21T09:24:42.345Z,17.10
2019-01-21T09:27:43.651Z,17.10
2019-01-21T09:30:44.495Z,17.00
2019-01-21T09:33:37.588Z,17.62
2019-01-21T09:36:35.182Z,16.90
2019-01-21T09:39:26.532Z,17.30
2019-01-21T09:42:21.703Z,16.80
2019-01-21T09:45:11.946Z,16.93
2019-01-21T09:47:39.702Z,16.17
2019-01-21T09:50:09.077Z,16.50
2019-01-21T09:52:39.360Z,16.37
2019-01-21T09:55:09.288Z,17.27
2019-01-21T09:57:40.067Z,17.00
2019-01-21T10:00:17.633Z,15.68
2019-01-21T10:02:48.969Z,16.27
2019-01-21T10:05:18.453Z,16.43
2019-01-21T10:07:54.221Z,15.58
2019-01-21T10:10:45.757Z,18.52
2019-01-21T10:13:43.733Z,16.45
2019-01-21T10:16:38.528Z,15.90
2019-01-21T10:19:33.619Z,15.43
2019-01-21T10:22:16.718Z,15.50
2019-01-21T10:25:05.311Z,15.17
2019-01-21T10:28:00.423Z,14.55
2019-01-21T10:30:52.547Z,15.78
2019-01-21T10:33:34.685Z,15.07
2019-01-21T10:36:39.382Z,14.93
2019-01-21T10:39:35.818Z,15.17
2019-01-21T10:42:27.443Z,15.00
2019-01-21T10:45:13.307Z,15.67
2019-01-21T10:47:50.159Z,15.60
2019-01-21T10:50:39.230Z,14.57
2019-01-21T10:53:31.482Z,19.03
2019-01-21T10:56:22.131Z,15.37
2019-01-21T10:59:31.161Z,15.20
2019-01-21T11:02:30.834Z,16.67
2019-01-21T11:05:10.748Z,14.07
2019-01-21T11:07:47.134Z,15.23
2019-01-21T11:10:29.680Z,15.80
2019-01-21T11:13:06.180Z,15.83
2019-01-21T11:15:45.561Z,20.50
2019-01-21T11:19:01.979Z,22.63
2019-01-21T11:21:40.353Z,22.33
2019-01-21T11:24:36.467Z,27.00
2019-01-21T11:27:19.775Z,18.27
2019-01-21T11:30:23.923Z,19.17
2019-01-21T11:33:18.719Z,19.80
2019-01-21T11:36:09.168Z,17.40
2019-01-21T11:38:52.046Z,19.12
2019-01-21T11:41:43.719Z,20.83
2019-01-21T11:44:35.270Z,19.53
2019-01-21T11:47:20.567Z,17.30
2019-01-21T11:50:03.548Z,20.20
2019-01-21T11:52:43.318Z,22.83
2019-01-21T11:55:42.837Z,21.20
2019-01-21T11:58:37.367Z,25.17
2019-01-21T12:01:42.257Z,25.17
2019-01-21T12:04:43.989Z,33.40
2019-01-21T12:07:31.037Z,35.45
2019-01-21T12:10:16.711Z,51.00
2019-01-21T12:12:53.186Z,41.30
2019-01-21T12:15:51.396Z,34.37
2019-01-21T12:18:28.280Z,37.07
2019-01-21T12:21:23.060Z,41.97
2019-01-21T12:23:57.036Z,29.33
2019-01-21T12:26:52.540Z,29.23
2019-01-21T12:29:55.190Z,27.50
2019-01-21T12:32:58.229Z,27.67
2019-01-21T12:35:55.895Z,27.13
2019-01-21T12:39:00.181Z,27.85
2019-01-21T12:42:06.032Z,27.17
2019-01-21T12:44:54.972Z,25.90
2019-01-21T12:47:40.036Z,26.67
2019-01-21T12:50:38.001Z,26.53
2019-01-21T12:53:32.632Z,25.67
2019-01-21T12:56:46.022Z,26.10
2019-01-21T12:59:40.643Z,24.67
2019-01-21T13:02:23.104Z,25.37
2019-01-21T13:05:08.923Z,25.50
2019-01-21T13:07:45.304Z,24.80
2019-01-21T13:10:36.093Z,24.90
2019-01-21T13:13:18.514Z,26.10
2019-01-21T13:16:22.021Z,24.97
2019-01-21T13:19:10.732Z,27.67
2019-01-21T13:22:18.034Z,28.80
2019-01-21T13:25:44.945Z,23.87
2019-01-21T13:28:34.823Z,22.73
2019-01-21T13:31:32.837Z,23.77
2019-01-21T13:34:37.028Z,25.73
2019-01-21T13:37:31.906Z,26.10
2019-01-21T13:40:14.964Z,21.10
2019-01-21T13:42:57.617Z,25.67
2019-01-21T13:45:50.096Z,28.40
2019-01-21T13:48:26.517Z,29.33
2019-01-21T13:51:03.444Z,27.57
2019-01-21T13:53:51.527Z,30.47
2019-01-21T13:56:40.397Z,38.67
2019-01-21T13:59:27.068Z,36.13
2019-01-21T14:02:09.878Z,25.27
2019-01-21T14:05:04.313Z,27.23
2019-01-21T14:08:09.864Z,22.60
2019-01-21T14:10:52.363Z,23.80
2019-01-21T14:13:29.034Z,25.17
2019-01-21T14:16:33.087Z,20.20
2019-01-21T14:19:10.341Z,23.20
2019-01-21T14:22:23.764Z,21.93
2019-01-21T14:25:25.060Z,22.40
2019-01-21T14:28:30.945Z,20.50
2019-01-21T14:31:17.738Z,21.17
2019-01-21T14:33:54.496Z,23.70
2019-01-21T14:36:43.866Z,21.33
2019-01-21T14:39:26.583Z,23.23
2019-01-21T14:42:15.592Z,23.97
2019-01-21T14:45:18.038Z,20.80
2019-01-21T14:48:08.685Z,20.20
2019-01-21T14:51:01.014Z,20.00
2019-01-21T14:54:02.611Z,26.50
2019-01-21T14:57:07.440Z,20.27
2019-01-21T15:00:11.090Z,20.00
2019-01-21T15:02:53.477Z,20.10
2019-01-21T15:05:43.622Z,19.47
2019-01-21T15:08:17.607Z,22.03
2019-01-21T15:11:14.081Z,21.80
2019-01-21T15:14:02.613Z,25.43
2019-01-21T15:16:42.026Z,20.03
2019-01-21T15:19:16.045Z,21.30
2019-01-21T15:22:03.745Z,21.83
2019-01-21T15:25:04.850Z,22.17
2019-01-21T15:27:42.410Z,26.43
2019-01-21T15:30:36.214Z,29.03
2019-01-21T15:33:22.231Z,23.83
2019-01-21T15:36:02.324Z,19.97
2019-01-21T15:38:42.245Z,55.37
2019-01-21T15:41:34.010Z,31.93
2019-01-21T15:44:20.332Z,22.13
2019-01-21T15:47:18.465Z,27.70
2019-01-21T15:50:04.287Z,14.93
2019-01-21T15:52:38.291Z,20.53
2019-01-21T15:55:24.431Z,20.57
2019-01-21T15:58:18.735Z,21.10
2019-01-21T16:00:55.277Z,16.27
2019-01-21T16:04:01.135Z,18.60
2019-01-21T16:06:40.745Z,21.90
2019-01-21T16:09:43.379Z,26.20
2019-01-21T16:12:26.034Z,17.07
2019-01-21T16:15:14.793Z,18.40
2019-01-21T16:17:54.985Z,19.07
2019-01-21T16:20:29.309Z,18.77
2019-01-21T16:23:34.607Z,19.40
2019-01-21T16:26:04.687Z,19.83
2019-01-21T16:28:44.435Z,18.77
2019-01-21T18:21:43.700Z,13.98
2019-01-21T18:24:14.363Z,15.70
2019-01-21T18:26:43.749Z,15.93
2019-01-21T18:29:13.152Z,13.85
2019-01-21T18:31:42.527Z,14.40
2019-01-21T18:34:11.963Z,14.38
2019-01-21T18:36:41.447Z,14.37
2019-01-21T18:39:12.289Z,14.28
2019-01-21T18:41:41.663Z,14.37
2019-01-21T18:44:11.122Z,14.47
2019-01-21T18:46:40.489Z,14.57
2019-01-21T18:49:09.928Z,14.80
2019-01-21T18:51:39.336Z,14.07
2019-01-21T18:54:08.695Z,15.47
2019-01-21T18:56:38.327Z,17.00
2019-01-21T18:59:07.732Z,18.77
2019-01-21T19:01:37.105Z,16.97
2019-01-21T19:04:06.609Z,14.60
2019-01-21T19:06:36.011Z,14.57
2019-01-21T19:09:07.974Z,15.47
2019-01-21T19:11:37.360Z,15.18
2019-01-21T19:14:06.916Z,17.90
2019-01-21T19:16:36.286Z,16.70
2019-01-21T19:19:05.717Z,15.75
2019-01-21T19:21:35.098Z,16.40
2019-01-21T19:24:05.114Z,16.85
2019-01-21T19:26:35.549Z,14.47
2019-01-21T19:29:05.150Z,18.20
2019-01-21T19:31:34.512Z,15.47
2019-01-21T19:34:04.407Z,13.80
2019-01-21T19:36:33.805Z,14.73
2019-01-21T19:39:03.237Z,14.03
2019-01-21T19:41:32.617Z,16.03
2019-01-21T19:44:02.007Z,16.12
2019-01-21T19:46:31.379Z,15.30
2019-01-21T19:49:00.743Z,17.52
2019-01-21T19:51:30.150Z,16.30
2019-01-21T19:53:59.508Z,15.77
2019-01-21T19:56:28.871Z,14.80
2019-01-21T19:58:58.288Z,16.30
2019-01-21T20:01:27.640Z,16.23
2019-01-21T20:03:57.005Z,15.10
2019-01-21T20:06:26.406Z,15.77
2019-01-21T20:08:55.760Z,15.07
2019-01-21T20:11:25.203Z,15.90
2019-01-21T20:13:54.588Z,16.60
2019-01-21T20:16:24.413Z,17.97
2019-01-21T20:18:53.839Z,22.07
2019-01-21T20:21:23.259Z,20.30
2019-01-21T20:23:54.253Z,19.90
2019-01-21T20:26:23.620Z,20.00
2019-01-21T20:28:53.633Z,18.63
2019-01-21T20:31:22.996Z,18.60
2019-01-21T20:33:52.432Z,20.90
2019-01-21T20:36:21.861Z,18.17
2019-01-21T20:38:51.224Z,20.60
2019-01-21T20:41:20.585Z,17.00
2019-01-21T20:43:50.363Z,20.20
2019-01-21T20:46:19.732Z,20.33
2019-01-21T20:48:49.088Z,17.93
2019-01-21T20:51:18.456Z,15.93
2019-01-21T20:53:47.838Z,19.05
2019-01-21T20:56:17.286Z,18.67
2019-01-21T20:58:47.451Z,19.37
2019-01-21T21:01:16.805Z,15.53
2019-01-21T21:03:46.180Z,16.12
2019-01-21T21:06:15.947Z,20.93
2019-01-21T21:08:45.314Z,19.13
2019-01-21T21:11:14.672Z,16.00
2019-01-21T21:13:44.046Z,15.25
2019-01-21T21:16:13.415Z,16.13
2019-01-21T21:18:42.841Z,16.00
2019-01-21T21:21:12.287Z,20.17
2019-01-21T21:23:41.642Z,18.30
2019-01-21T21:26:11.030Z,14.93
2019-01-21T21:28:40.415Z,16.62
2019-01-21T21:31:11.236Z,16.27
2019-01-21T21:33:40.587Z,19.67
2019-01-21T21:36:09.965Z,18.67
2019-01-21T21:38:39.328Z,17.50
2019-01-21T21:41:08.682Z,17.60
2019-01-21T21:43:38.069Z,16.80
2019-01-21T21:46:07.450Z,18.10
2019-01-21T21:48:36.827Z,17.30
2019-01-21T21:51:06.253Z,17.75
2019-01-21T21:53:35.692Z,17.07
2019-01-21T21:56:05.138Z,17.77
2019-01-21T21:58:34.512Z,18.90
2019-01-21T22:01:03.951Z,17.33
2019-01-21T22:03:33.317Z,20.75
2019-01-21T22:06:02.778Z,16.70
2019-01-21T22:08:32.133Z,16.97
2019-01-21T22:11:01.498Z,18.17
2019-01-21T22:13:30.890Z,18.98
2019-01-21T22:16:00.247Z,17.43
2019-01-21T22:18:29.883Z,17.07
2019-01-21T22:20:59.258Z,20.67
2019-01-21T22:23:28.640Z,20.05
2019-01-21T22:25:57.987Z,16.27
2019-01-21T22:28:27.375Z,17.30
2019-01-21T22:30:56.737Z,17.60
2019-01-21T22:33:26.478Z,19.35
2019-01-21T22:35:56.212Z,20.90
2019-01-21T22:38:25.560Z,18.32
2019-01-21T22:40:54.929Z,14.77
2019-01-21T22:43:24.375Z,21.30
2019-01-21T22:45:53.749Z,18.73
2019-01-21T22:48:23.130Z,26.07
2019-01-21T22:50:52.540Z,19.00
2019-01-21T22:53:21.903Z,16.32
2019-01-21T22:55:51.289Z,18.57
2019-01-21T22:58:20.765Z,18.55
2019-01-21T23:00:54.926Z,16.70
2019-01-21T23:03:24.430Z,20.43
2019-01-21T23:05:53.880Z,17.57
2019-01-21T23:08:23.603Z,25.12
2019-01-21T23:10:52.965Z,22.93
2019-01-21T23:13:22.747Z,25.62
2019-01-21T23:15:52.118Z,22.85
2019-01-21T23:18:21.495Z,20.95
2019-01-21T23:20:51.151Z,17.50
2019-01-21T23:23:20.519Z,18.45
2019-01-21T23:25:50.188Z,19.00
2019-01-21T23:28:19.560Z,17.92
2019-01-21T23:30:48.918Z,17.77
2019-01-21T23:33:18.292Z,18.75
2019-01-21T23:35:48.940Z,21.57
2019-01-21T23:38:18.341Z,18.07
2019-01-21T23:40:47.699Z,19.27
2019-01-21T23:43:17.141Z,19.25
2019-01-21T23:45:46.516Z,20.37
2019-01-21T23:48:15.872Z,17.70
2019-01-21T23:50:45.243Z,17.23
2019-01-21T23:53:14.598Z,18.42
2019-01-21T23:55:43.947Z,16.20
2019-01-21T23:58:13.345Z,18.77
